Main page
METAR-TAF:

Airports :

Gomel, Belarus

Gomel Airport

latitude: 52-31-36N, longitude: 031-01-06E, elevation: 144 m

Current weather observation

The report was made 39 minutes ago, at 01:00 UTC
Wind 2 kt from variable directions
Temperature 17°C
Humidity 88%
Pressure 1023 hPa
Visibility: 8000 m

METAR: UMGG 250100Z VRB01MPS 8000 NSC 17/15 Q1023 R10/D NOSIG

Time: 04:39 (01:39 UTC)

Forecast

The report was made 2 hours and 39 minutes ago, at 23:00 UTC
Forecast valid from 25 at 00 UTC to 25 at 24 UTC
Wind 2 kt from variable directions
Visibility 10 km or more
Scattered clouds at a height of 2000 ft
Temporary
from 25 at 00 UTC to 25 at 04 UTC
Visibility: 2000 m
mist
Temporary
from 25 at 04 UTC to 25 at 18 UTC
Wind 14 kt from the Southeast
Temporary
from 25 at 18 UTC to 25 at 24 UTC
Wind 12 kt from the South
Visibility: 2000 m
mist

TAF: UMGG 242300Z 2500/2524 VRB01MPS 9999 SCT020 TEMPO 2500/2504 2000 BR TEMPO 2504/2518 14007MPS TEMPO 2518/2524 17006MPS 2000 BR

METAR-TAF

Weather observations and forecasts of more than 4000 airports (METAR and TAF reports).

The available stations are represented by yellow and red dots on the map.

Hover mouse over dot to see the name of the station.

Then click to see weather observations and forecasts.

To change the map : click on the green buttons with a black cross to zoom in, on the green button with a dash to zoom out, or on the green arrows for adjacent maps.


METAR-TAF: